Time;durP1;ratioP1;P1;durP2;ratioP2;P2;SDS_P1;SDS_P2;PMS_P1;PMS_P2;Temp;Humidity;BMP_temperature;BMP_pressure;BME280_temperature;BME280_humidity;BME280_pressure;Samples;Min_cycle;Max_cycle;Signal;HPM_P1;HPM_P2
2022/09/18 00:00:25;;;;;;;0.10;0.10;;;;;;;;;;5036291;28;20208;-69
2022/09/18 00:02:51;;;;;;;0.10;0.10;;;;;;;;;;5069328;28;20384;-69
2022/09/18 00:05:18;;;;;;;0.10;0.10;;;;;;;;;;5035606;28;20206;-69
2022/09/18 00:07:44;;;;;;;0.10;0.10;;;;;;;;;;5073196;28;20222;-69
2022/09/18 00:10:10;;;;;;;0.10;0.10;;;;;;;;;;5037471;28;20214;-70
2022/09/18 00:12:37;;;;;;;0.10;0.10;;;;;;;;;;5076301;28;20381;-69
2022/09/18 00:15:05;;;;;;;0.10;0.10;;;;;;;;;;5045706;28;20217;-70
2022/09/18 00:17:33;;;;;;;0.10;0.10;;;;;;;;;;5034308;28;20513;-69
2022/09/18 00:19:59;;;;;;;0.10;0.10;;;;;;;;;;5046097;28;20208;-69
2022/09/18 00:22:26;;;;;;;0.10;0.10;;;;;;;;;;5067319;28;20244;-70
2022/09/18 00:24:52;;;;;;;0.10;0.10;;;;;;;;;;5045888;28;20269;-69
2022/09/18 00:27:18;;;;;;;0.10;0.10;;;;;;;;;;5067263;28;20239;-69
2022/09/18 00:29:45;;;;;;;0.10;0.10;;;;;;;;;;5045674;28;20279;-70
2022/09/18 00:32:12;;;;;;;0.10;0.10;;;;;;;;;;5067397;28;20245;-70
2022/09/18 00:34:40;;;;;;;0.10;0.10;;;;;;;;;;5045691;28;20233;-70
2022/09/18 00:37:06;;;;;;;0.10;0.10;;;;;;;;;;5067327;28;20241;-69
2022/09/18 00:39:32;;;;;;;0.10;0.10;;;;;;;;;;5045567;28;20205;-71
2022/09/18 00:41:59;;;;;;;0.10;0.10;;;;;;;;;;5065603;28;20235;-69
2022/09/18 00:44:30;;;;;;;0.10;0.10;;;;;;;;;;5046935;28;20217;-70
2022/09/18 00:46:57;;;;;;;0.10;0.10;;;;;;;;;;5064492;28;20445;-69
2022/09/18 00:49:26;;;;;;;0.10;0.10;;;;;;;;;;5047186;28;20436;-69
2022/09/18 00:51:54;;;;;;;0.10;0.10;;;;;;;;;;5063494;28;20331;-71
2022/09/18 00:54:23;;;;;;;0.10;0.10;;;;;;;;;;5048141;28;20368;-76
2022/09/18 00:56:50;;;;;;;0.10;0.10;;;;;;;;;;5062455;28;20435;-75
2022/09/18 00:59:19;;;;;;;0.10;0.10;;;;;;;;;;5048756;28;20510;-75
2022/09/18 01:01:45;;;;;;;0.10;0.10;;;;;;;;;;5061285;28;20573;-76
2022/09/18 01:04:12;;;;;;;0.10;0.10;;;;;;;;;;5049971;28;20197;-75
2022/09/18 01:06:45;;;;;;;0.10;0.10;;;;;;;;;;5059563;28;20267;-75
2022/09/18 01:09:14;;;;;;;0.10;0.10;;;;;;;;;;5050145;28;20230;-76
2022/09/18 01:11:44;;;;;;;0.10;0.10;;;;;;;;;;5059888;28;20247;-76
2022/09/18 01:14:22;;;;;;;0.10;0.10;;;;;;;;;;5050286;28;20217;-76
2022/09/18 01:16:53;;;;;;;0.10;0.10;;;;;;;;;;5061697;28;20572;-76
2022/09/18 01:19:29;;;;;;;0.10;0.10;;;;;;;;;;5047166;28;20396;-75
2022/09/18 01:22:00;;;;;;;0.10;0.10;;;;;;;;;;5062186;28;20560;-75
2022/09/18 01:24:34;;;;;;;0.10;0.10;;;;;;;;;;5046069;28;20447;-75
2022/09/18 01:27:02;;;;;;;0.10;0.10;;;;;;;;;;5064952;28;20477;-75
2022/09/18 01:29:41;;;;;;;0.10;0.10;;;;;;;;;;5044816;28;20418;-75
2022/09/18 01:32:09;;;;;;;0.10;0.10;;;;;;;;;;5066167;28;20247;-76
2022/09/18 01:34:38;;;;;;;0.10;0.10;;;;;;;;;;5044402;28;20208;-76
2022/09/18 01:37:08;;;;;;;0.10;0.10;;;;;;;;;;5065820;28;20244;-76
2022/09/18 01:39:36;;;;;;;0.10;0.10;;;;;;;;;;5044514;28;20399;-76
2022/09/18 01:42:03;;;;;;;0.10;0.10;;;;;;;;;;5065147;28;20245;-76
2022/09/18 01:44:32;;;;;;;0.10;0.10;;;;;;;;;;5044341;28;20283;-75
2022/09/18 01:47:00;;;;;;;0.10;0.10;;;;;;;;;;5063887;28;20264;-74
2022/09/18 01:49:28;;;;;;;0.10;0.10;;;;;;;;;;5045639;28;20229;-75
2022/09/18 01:51:57;;;;;;;0.10;0.10;;;;;;;;;;5062724;28;20250;-74
2022/09/18 01:54:25;;;;;;;0.10;0.10;;;;;;;;;;5045653;28;20561;-75
2022/09/18 01:56:52;;;;;;;0.10;0.10;;;;;;;;;;5061546;28;20489;-76
2022/09/18 01:59:21;;;;;;;0.10;0.10;;;;;;;;;;5047336;28;20201;-76
2022/09/18 02:01:49;;;;;;;0.10;0.10;;;;;;;;;;5060801;28;20246;-76
2022/09/18 02:04:19;;;;;;;0.10;0.10;;;;;;;;;;5048017;28;20211;-75
2022/09/18 02:06:51;;;;;;;0.10;0.10;;;;;;;;;;5060057;28;20243;-75
2022/09/18 02:09:17;;;;;;;0.10;0.10;;;;;;;;;;5047472;28;20226;-76
2022/09/18 02:11:46;;;;;;;0.10;0.10;;;;;;;;;;5059452;28;20247;-76
2022/09/18 02:14:14;;;;;;;0.10;0.10;;;;;;;;;;5049184;28;20374;-75
2022/09/18 02:16:42;;;;;;;0.10;0.10;;;;;;;;;;5058752;28;20244;-76
2022/09/18 02:19:11;;;;;;;0.10;0.10;;;;;;;;;;5049910;28;20200;-75
2022/09/18 02:21:41;;;;;;;0.10;0.10;;;;;;;;;;5057639;28;20331;-75
2022/09/18 02:24:09;;;;;;;0.10;0.10;;;;;;;;;;5049699;28;20216;-76
2022/09/18 02:26:36;;;;;;;0.10;0.10;;;;;;;;;;5056772;28;20253;-76
2022/09/18 02:29:05;;;;;;;0.10;0.10;;;;;;;;;;5051082;28;20231;-76
2022/09/18 02:31:32;;;;;;;0.10;0.10;;;;;;;;;;5054922;28;20579;-75
2022/09/18 02:33:59;;;;;;;0.10;0.10;;;;;;;;;;5051815;28;20248;-75
2022/09/18 02:36:36;;;;;;;0.10;0.10;;;;;;;;;;5054146;28;20250;-75
2022/09/18 02:39:09;;;;;;;0.10;0.10;;;;;;;;;;5051088;28;20296;-76
2022/09/18 02:41:41;;;;;;;0.10;0.10;;;;;;;;;;5056701;28;20241;-76
2022/09/18 02:44:09;;;;;;;0.10;0.10;;;;;;;;;;5049739;28;20394;-77
2022/09/18 02:46:39;;;;;;;0.10;0.10;;;;;;;;;;5056455;28;20308;-76
2022/09/18 02:49:10;;;;;;;0.10;0.10;;;;;;;;;;5049742;28;20229;-73
2022/09/18 02:51:42;;;;;;;0.10;0.10;;;;;;;;;;5057172;28;20241;-75
2022/09/18 02:54:12;;;;;;;0.10;0.10;;;;;;;;;;5048901;28;20251;-75
2022/09/18 02:56:39;;;;;;;0.10;0.10;;;;;;;;;;5057349;28;20245;-76
2022/09/18 02:59:09;;;;;;;0.10;0.10;;;;;;;;;;5049061;28;20312;-76
2022/09/18 03:01:38;;;;;;;0.10;0.10;;;;;;;;;;5056667;28;20243;-76
2022/09/18 03:04:05;;;;;;;0.10;0.10;;;;;;;;;;5049712;28;20429;-76
2022/09/18 03:06:31;;;;;;;0.10;0.10;;;;;;;;;;5055249;28;20314;-76
2022/09/18 03:08:58;;;;;;;0.10;0.10;;;;;;;;;;5051249;28;20229;-76
2022/09/18 03:11:26;;;;;;;0.10;0.10;;;;;;;;;;5053623;28;20465;-75
2022/09/18 03:13:53;;;;;;;0.10;0.10;;;;;;;;;;5052590;28;20209;-75
2022/09/18 03:16:19;;;;;;;10.93;9.80;;;;;;;;;;5052094;28;20256;-75
2022/09/18 03:18:45;;;;;;;0.10;0.10;;;;;;;;;;5054231;28;20206;-76
2022/09/18 03:21:12;;;;;;;0.53;0.53;;;;;;;;;;5049936;28;20248;-76
2022/09/18 03:23:38;;;;;;;0.10;0.10;;;;;;;;;;5056108;28;20204;-76
2022/09/18 03:26:04;;;;;;;0.10;0.10;;;;;;;;;;5047730;28;20239;-76
2022/09/18 03:28:32;;;;;;;0.10;0.10;;;;;;;;;;5058462;28;20416;-75
2022/09/18 03:30:58;;;;;;;0.10;0.10;;;;;;;;;;5046122;28;20247;-75
2022/09/18 03:33:25;;;;;;;0.10;0.10;;;;;;;;;;5059876;28;20354;-76
2022/09/18 03:35:51;;;;;;;0.10;0.10;;;;;;;;;;5044307;28;20277;-76
2022/09/18 03:38:17;;;;;;;0.10;0.10;;;;;;;;;;5061625;28;20272;-75
2022/09/18 03:40:44;;;;;;;0.10;0.10;;;;;;;;;;5042311;28;20317;-76
2022/09/18 03:43:10;;;;;;;0.10;0.10;;;;;;;;;;5063137;28;20217;-75
2022/09/18 03:45:38;;;;;;;0.10;0.10;;;;;;;;;;5040519;28;20243;-76
2022/09/18 03:48:04;;;;;;;0.10;0.10;;;;;;;;;;5065478;28;20494;-76
2022/09/18 03:50:31;;;;;;;0.10;0.10;;;;;;;;;;5038658;28;20241;-76
2022/09/18 03:52:57;;;;;;;0.10;0.10;;;;;;;;;;5066999;28;20503;-75
2022/09/18 03:55:23;;;;;;;0.10;0.10;;;;;;;;;;5035852;28;20300;-77
2022/09/18 03:57:50;;;;;;;0.77;0.77;;;;;;;;;;5070060;28;20291;-75
2022/09/18 04:00:16;;;;;;;0.10;0.10;;;;;;;;;;5034135;28;20359;-76
2022/09/18 04:02:44;;;;;;;0.10;0.10;;;;;;;;;;5071311;28;20202;-75
2022/09/18 04:05:11;;;;;;;0.10;0.10;;;;;;;;;;5032621;28;20263;-75
2022/09/18 04:07:37;;;;;;;0.10;0.10;;;;;;;;;;5072462;28;20238;-77
2022/09/18 04:10:04;;;;;;;0.10;0.10;;;;;;;;;;5041884;28;20246;-75
2022/09/18 04:12:33;;;;;;;0.10;0.10;;;;;;;;;;5030055;28;20220;-75
2022/09/18 04:14:59;;;;;;;0.10;0.10;;;;;;;;;;5042081;28;20285;-75
2022/09/18 04:17:26;;;;;;;0.10;0.10;;;;;;;;;;5063546;28;20568;-77
2022/09/18 04:19:54;;;;;;;0.10;0.10;;;;;;;;;;5041858;28;20202;-76
2022/09/18 04:22:20;;;;;;;0.10;0.10;;;;;;;;;;5063733;28;20325;-75
2022/09/18 04:24:47;;;;;;;0.10;0.10;;;;;;;;;;5041828;28;20276;-76
2022/09/18 04:27:13;;;;;;;0.10;0.10;;;;;;;;;;5063545;28;20247;-76
2022/09/18 04:29:40;;;;;;;0.10;0.10;;;;;;;;;;5041421;28;20228;-76
2022/09/18 04:32:06;;;;;;;0.10;0.10;;;;;;;;;;5063653;28;20247;-75
2022/09/18 04:34:32;;;;;;;0.10;0.10;;;;;;;;;;5041994;28;20284;-74
2022/09/18 04:37:00;;;;;;;0.10;0.10;;;;;;;;;;5061935;28;20377;-73
2022/09/18 04:39:27;;;;;;;0.10;0.10;;;;;;;;;;5043228;28;20417;-75
2022/09/18 04:41:53;;;;;;;0.10;0.10;;;;;;;;;;5060471;28;20250;-75
2022/09/18 04:44:22;;;;;;;0.10;0.10;;;;;;;;;;5041968;28;20555;-76
2022/09/18 04:46:48;;;;;;;0.10;0.10;;;;;;;;;;5058880;28;20239;-76
2022/09/18 04:49:14;;;;;;;0.10;0.10;;;;;;;;;;5046017;28;20224;-75
2022/09/18 04:51:41;;;;;;;0.10;0.10;;;;;;;;;;5056691;28;20453;-75
2022/09/18 04:54:08;;;;;;;0.10;0.10;;;;;;;;;;5048793;28;20206;-76
2022/09/18 04:56:35;;;;;;;0.10;0.10;;;;;;;;;;5058812;28;20251;-77
2022/09/18 04:59:02;;;;;;;0.10;0.10;;;;;;;;;;5052775;28;20226;-75
2022/09/18 05:01:28;;;;;;;0.10;0.10;;;;;;;;;;5056851;28;20253;-75
2022/09/18 05:03:55;;;;;;;0.10;0.10;;;;;;;;;;5054452;28;20243;-77
2022/09/18 05:06:21;;;;;;;0.10;0.10;;;;;;;;;;5055289;28;20239;-77
2022/09/18 05:08:49;;;;;;;0.10;0.10;;;;;;;;;;5056680;28;20215;-76
2022/09/18 05:11:16;;;;;;;0.10;0.10;;;;;;;;;;5053462;28;20262;-77
2022/09/18 05:13:43;;;;;;;0.10;0.10;;;;;;;;;;5057898;28;20243;-76
2022/09/18 05:16:09;;;;;;;0.10;0.10;;;;;;;;;;5051686;28;20262;-76
2022/09/18 05:18:36;;;;;;;0.10;0.10;;;;;;;;;;5059363;28;20221;-75
2022/09/18 05:21:02;;;;;;;0.10;0.10;;;;;;;;;;5049941;28;20419;-75
2022/09/18 05:23:28;;;;;;;0.10;0.10;;;;;;;;;;5061325;28;20211;-74
2022/09/18 05:25:55;;;;;;;0.10;0.10;;;;;;;;;;5048039;28;20243;-76
2022/09/18 05:28:22;;;;;;;0.10;0.10;;;;;;;;;;5063284;28;20205;-75
2022/09/18 05:30:49;;;;;;;0.10;0.10;;;;;;;;;;5045435;28;20452;-75
2022/09/18 05:33:15;;;;;;;0.10;0.10;;;;;;;;;;5065357;28;20520;-76
2022/09/18 05:35:42;;;;;;;0.10;0.10;;;;;;;;;;5043885;28;20239;-74
2022/09/18 05:38:08;;;;;;;0.10;0.10;;;;;;;;;;5066108;28;20227;-76
2022/09/18 05:40:35;;;;;;;0.10;0.10;;;;;;;;;;5042310;28;20310;-76
2022/09/18 05:43:02;;;;;;;0.10;0.10;;;;;;;;;;5067680;28;20209;-76
2022/09/18 05:45:30;;;;;;;0.10;0.10;;;;;;;;;;5040675;28;20239;-75
2022/09/18 05:47:58;;;;;;;0.10;0.10;;;;;;;;;;5069418;28;20375;-76
2022/09/18 05:50:25;;;;;;;0.10;0.10;;;;;;;;;;5038884;28;20387;-77
2022/09/18 05:52:58;;;;;;;0.10;0.10;;;;;;;;;;5070866;28;20494;-76
2022/09/18 05:55:27;;;;;;;0.10;0.10;;;;;;;;;;5039442;28;20521;-76
2022/09/18 05:57:54;;;;;;;0.10;0.10;;;;;;;;;;5069942;28;20473;-75
2022/09/18 06:00:20;;;;;;;0.10;0.10;;;;;;;;;;5037478;28;20391;-76
2022/09/18 06:02:54;;;;;;;0.10;0.10;;;;;;;;;;5072159;28;20330;-76
2022/09/18 06:05:20;;;;;;;0.10;0.10;;;;;;;;;;5037981;28;20236;-75
2022/09/18 06:07:47;;;;;;;0.10;0.10;;;;;;;;;;5071627;28;20187;-76
2022/09/18 06:10:13;;;;;;;0.10;0.10;;;;;;;;;;5035898;28;20248;-76
2022/09/18 06:12:39;;;;;;;0.10;0.10;;;;;;;;;;5073481;28;20200;-76
2022/09/18 06:15:06;;;;;;;0.10;0.10;;;;;;;;;;5038772;28;20230;-75
2022/09/18 06:17:33;;;;;;;0.10;0.10;;;;;;;;;;5075306;28;20209;-75
2022/09/18 06:20:01;;;;;;;0.10;0.10;;;;;;;;;;5043926;28;20197;-76
2022/09/18 06:22:31;;;;;;;0.10;0.10;;;;;;;;;;5065415;28;20275;-76
2022/09/18 06:24:57;;;;;;;0.10;0.10;;;;;;;;;;5043730;28;20207;-77
2022/09/18 06:27:23;;;;;;;0.10;0.10;;;;;;;;;;5065279;28;20243;-77
2022/09/18 06:29:50;;;;;;;0.10;0.10;;;;;;;;;;5043565;28;20378;-76
2022/09/18 06:32:18;;;;;;;0.10;0.10;;;;;;;;;;5064995;28;20629;-76
2022/09/18 06:34:44;;;;;;;0.10;0.10;;;;;;;;;;5043239;28;20275;-77
2022/09/18 06:37:12;;;;;;;0.10;0.10;;;;;;;;;;5065018;28;20261;-76
2022/09/18 06:39:39;;;;;;;0.10;0.10;;;;;;;;;;5043592;28;20425;-76
2022/09/18 06:42:06;;;;;;;0.10;0.10;;;;;;;;;;5065037;28;20239;-77
2022/09/18 06:44:32;;;;;;;0.10;0.10;;;;;;;;;;5043131;28;20218;-77
2022/09/18 06:46:58;;;;;;;0.10;0.10;;;;;;;;;;5062737;28;20250;-76
2022/09/18 06:49:25;;;;;;;0.10;0.10;;;;;;;;;;5044893;28;20301;-76
2022/09/18 06:51:51;;;;;;;0.10;0.10;;;;;;;;;;5060833;28;20302;-76
2022/09/18 06:54:19;;;;;;;0.10;0.10;;;;;;;;;;5046975;28;20206;-76
2022/09/18 06:56:45;;;;;;;0.10;0.10;;;;;;;;;;5058829;28;20317;-76
2022/09/18 06:59:13;;;;;;;0.10;0.10;;;;;;;;;;5047771;28;20210;-76
2022/09/18 07:01:40;;;;;;;0.10;0.10;;;;;;;;;;5057507;28;20243;-76
2022/09/18 07:04:06;;;;;;;0.10;0.10;;;;;;;;;;5049470;28;20205;-76
2022/09/18 07:06:32;;;;;;;0.10;0.10;;;;;;;;;;5055590;28;20247;-76
2022/09/18 07:08:59;;;;;;;0.10;0.10;;;;;;;;;;5051427;28;20206;-75
2022/09/18 07:11:26;;;;;;;0.10;0.10;;;;;;;;;;5053453;28;20341;-75
2022/09/18 07:13:53;;;;;;;0.10;0.10;;;;;;;;;;5053358;28;20208;-76
2022/09/18 07:16:19;;;;;;;0.10;0.10;;;;;;;;;;5051477;28;20414;-76
2022/09/18 07:18:47;;;;;;;0.10;0.10;;;;;;;;;;5054710;28;20205;-76
2022/09/18 07:21:13;;;;;;;0.10;0.10;;;;;;;;;;5050473;28;20245;-76
2022/09/18 07:23:39;;;;;;;0.10;0.10;;;;;;;;;;5056462;28;20211;-75
2022/09/18 07:26:06;;;;;;;0.10;0.10;;;;;;;;;;5048375;28;20276;-75
2022/09/18 07:28:34;;;;;;;0.10;0.10;;;;;;;;;;5058179;28;20387;-76
2022/09/18 07:31:02;;;;;;;0.10;0.10;;;;;;;;;;5046370;28;20251;-76
2022/09/18 07:33:28;;;;;;;0.10;0.10;;;;;;;;;;5058507;28;20208;-74
2022/09/18 07:35:58;;;;;;;0.10;0.10;;;;;;;;;;5045260;28;20248;-76
2022/09/18 07:38:25;;;;;;;0.10;0.10;;;;;;;;;;5059856;28;20202;-76
2022/09/18 07:40:51;;;;;;;0.10;0.10;;;;;;;;;;5044186;28;20242;-76
2022/09/18 07:43:18;;;;;;;0.10;0.10;;;;;;;;;;5061539;28;20230;-75
2022/09/18 07:45:45;;;;;;;0.10;0.10;;;;;;;;;;5042174;28;20241;-75
2022/09/18 07:48:12;;;;;;;0.03;0.03;;;;;;;;;;5063376;28;20214;-77
2022/09/18 07:50:39;;;;;;;0.10;0.10;;;;;;;;;;5041191;28;20242;-75
2022/09/18 07:53:07;;;;;;;0.10;0.10;;;;;;;;;;5065352;28;20498;-75
2022/09/18 07:55:34;;;;;;;0.43;0.43;;;;;;;;;;5040038;28;20251;-76
2022/09/18 07:58:03;;;;;;;0.10;0.10;;;;;;;;;;5066596;28;20232;-76
2022/09/18 08:00:32;;;;;;;0.10;0.10;;;;;;;;;;5038852;28;20240;-75
2022/09/18 08:03:03;;;;;;;0.10;0.10;;;;;;;;;;5067211;28;20216;-76
2022/09/18 08:05:30;;;;;;;0.10;0.10;;;;;;;;;;5039230;28;20454;-76
2022/09/18 08:07:56;;;;;;;0.03;0.03;;;;;;;;;;5067393;28;20201;-77
2022/09/18 08:10:24;;;;;;;0.10;0.10;;;;;;;;;;5036980;28;20238;-76
2022/09/18 08:12:53;;;;;;;0.10;0.10;;;;;;;;;;5068839;28;20478;-75
2022/09/18 08:15:19;;;;;;;0.10;0.10;;;;;;;;;;5035768;28;20218;-75
2022/09/18 08:17:45;;;;;;;0.10;0.10;;;;;;;;;;5070340;28;20197;-76
2022/09/18 08:20:14;;;;;;;0.10;0.10;;;;;;;;;;5034323;28;20448;-76
2022/09/18 08:22:40;;;;;;;0.10;0.10;;;;;;;;;;5071861;28;20194;-75
2022/09/18 08:25:07;;;;;;;0.10;0.10;;;;;;;;;;5032442;28;20207;-74
2022/09/18 08:27:35;;;;;;;0.10;0.10;;;;;;;;;;5072468;28;20205;-76
2022/09/18 08:30:04;;;;;;;0.00;0.00;;;;;;;;;;5044329;28;20249;-75
2022/09/18 08:32:31;;;;;;;0.10;0.10;;;;;;;;;;5033808;28;20212;-76
2022/09/18 08:35:00;;;;;;;0.10;0.10;;;;;;;;;;5045567;28;20238;-76
2022/09/18 08:37:27;;;;;;;0.10;0.10;;;;;;;;;;5067248;28;20253;-76
2022/09/18 08:39:54;;;;;;;0.10;0.10;;;;;;;;;;5045591;28;20211;-76
2022/09/18 08:42:24;;;;;;;0.10;0.10;;;;;;;;;;5067438;28;20240;-75
2022/09/18 08:44:53;;;;;;;0.10;0.10;;;;;;;;;;5045319;28;20206;-75
2022/09/18 08:47:22;;;;;;;0.10;0.10;;;;;;;;;;5067099;28;20533;-74
2022/09/18 08:49:52;;;;;;;0.10;0.10;;;;;;;;;;5045375;28;20447;-75
2022/09/18 08:52:19;;;;;;;0.07;0.07;;;;;;;;;;5067037;28;20537;-76
2022/09/18 08:54:49;;;;;;;0.10;0.10;;;;;;;;;;5045086;28;20243;-75
2022/09/18 08:57:22;;;;;;;0.10;0.10;;;;;;;;;;5066716;28;20301;-76
2022/09/18 08:59:51;;;;;;;0.10;0.10;;;;;;;;;;5045333;28;20279;-75
2022/09/18 09:02:22;;;;;;;0.10;0.10;;;;;;;;;;5066754;28;20301;-74
2022/09/18 09:04:49;;;;;;;0.10;0.10;;;;;;;;;;5045168;28;20213;-75
2022/09/18 09:07:28;;;;;;;0.10;0.10;;;;;;;;;;5066808;28;20264;-75
2022/09/18 09:10:03;;;;;;;0.10;0.10;;;;;;;;;;5045133;28;20274;-75
2022/09/18 09:12:33;;;;;;;0.10;0.10;;;;;;;;;;5066396;28;20253;-76
2022/09/18 09:15:14;;;;;;;0.00;0.00;;;;;;;;;;5045111;28;20207;-74
2022/09/18 09:17:50;;;;;;;0.10;0.10;;;;;;;;;;5041582;28;20210;-76
2022/09/18 09:20:20;;;;;;;0.10;0.10;;;;;;;;;;5037581;28;20224;-76
2022/09/18 09:22:49;;;;;;;0.03;0.03;;;;;;;;;;5073013;28;20489;-76
2022/09/18 09:25:20;;;;;;;0.10;0.10;;;;;;;;;;5037722;28;20210;-75
2022/09/18 09:27:48;;;;;;;0.10;0.10;;;;;;;;;;5072842;28;20265;-76
2022/09/18 09:30:16;;;;;;;0.10;0.10;;;;;;;;;;5036948;28;20269;-76
2022/09/18 09:32:44;;;;;;;0.10;0.10;;;;;;;;;;5073241;28;20208;-75
2022/09/18 09:35:20;;;;;;;0.10;0.10;;;;;;;;;;5035914;28;20210;-76
2022/09/18 09:37:47;;;;;;;0.10;0.10;;;;;;;;;;5072155;28;20357;-76
2022/09/18 09:40:16;;;;;;;0.10;0.10;;;;;;;;;;5036120;28;20506;-75
2022/09/18 09:42:46;;;;;;;0.10;0.10;;;;;;;;;;5073138;28;20286;-79
2022/09/18 09:45:15;;;;;;;0.10;0.10;;;;;;;;;;5035788;28;20215;-76
2022/09/18 09:47:43;;;;;;;0.00;0.00;;;;;;;;;;5073458;28;20195;-75
2022/09/18 09:50:15;;;;;;;0.10;0.10;;;;;;;;;;5035158;28;20450;-75
2022/09/18 09:52:42;;;;;;;0.10;0.10;;;;;;;;;;5073101;28;20203;-74
2022/09/18 09:55:18;;;;;;;0.10;0.10;;;;;;;;;;5035003;28;20210;-73
2022/09/18 09:57:49;;;;;;;0.10;0.10;;;;;;;;;;5072338;28;20226;-71
2022/09/18 10:00:16;;;;;;;0.10;0.10;;;;;;;;;;5035615;28;20247;-72
2022/09/18 10:02:50;;;;;;;0.00;0.00;;;;;;;;;;5073199;28;20195;-73
2022/09/18 10:05:19;;;;;;;0.00;0.00;;;;;;;;;;5036822;28;20226;-70
2022/09/18 10:07:49;;;;;;;0.10;0.10;;;;;;;;;;5071428;28;20209;-76
2022/09/18 10:10:17;;;;;;;0.10;0.10;;;;;;;;;;5035550;28;20209;-75
2022/09/18 10:12:50;;;;;;;0.00;0.00;;;;;;;;;;5072296;28;20228;-76
2022/09/18 10:15:19;;;;;;;0.10;0.10;;;;;;;;;;5036736;28;20302;-76
2022/09/18 10:17:46;;;;;;;0.10;0.10;;;;;;;;;;5071355;28;20268;-80
2022/09/18 10:20:17;;;;;;;0.10;0.10;;;;;;;;;;5035011;28;20207;-74
2022/09/18 10:22:44;;;;;;;0.10;0.10;;;;;;;;;;5072084;28;20199;-72
2022/09/18 10:25:15;;;;;;;0.10;0.10;;;;;;;;;;5034633;28;20208;-74
2022/09/18 10:27:41;;;;;;;0.10;0.10;;;;;;;;;;5072516;28;20197;-75
2022/09/18 10:30:13;;;;;;;0.10;0.10;;;;;;;;;;5033752;28;20307;-72
2022/09/18 10:32:41;;;;;;;0.07;0.07;;;;;;;;;;5072817;28;20550;-73
2022/09/18 10:35:34;;;;;;;0.10;0.10;;;;;;;;;;5033964;28;20398;-72
2022/09/18 10:38:00;;;;;;;0.10;0.10;;;;;;;;;;5067534;28;20211;-73
2022/09/18 10:40:30;;;;;;;0.00;0.00;;;;;;;;;;5038799;28;20306;-73
2022/09/18 10:42:57;;;;;;;0.10;0.10;;;;;;;;;;5067921;28;20398;-74
2022/09/18 10:45:25;;;;;;;0.10;0.10;;;;;;;;;;5037524;28;20197;-74
2022/09/18 10:48:02;;;;;;;0.10;0.10;;;;;;;;;;5069498;28;20203;-75
2022/09/18 10:50:29;;;;;;;0.10;0.10;;;;;;;;;;5038799;28;20262;-72
2022/09/18 10:52:56;;;;;;;0.10;0.10;;;;;;;;;;5067504;28;20241;-75
2022/09/18 10:55:24;;;;;;;0.10;0.10;;;;;;;;;;5037430;28;20247;-73
2022/09/18 10:58:02;;;;;;;0.00;0.00;;;;;;;;;;5069698;28;20228;-74
2022/09/18 11:00:39;;;;;;;0.10;0.10;;;;;;;;;;5038442;28;20249;-74
2022/09/18 11:03:19;;;;;;;0.10;0.10;;;;;;;;;;5065885;28;20205;-74
2022/09/18 11:05:50;;;;;;;0.10;0.10;;;;;;;;;;5043230;28;20341;-75
2022/09/18 11:08:18;;;;;;;0.10;0.10;;;;;;;;;;5062619;28;20204;-74
2022/09/18 11:10:47;;;;;;;0.07;0.07;;;;;;;;;;5042795;28;20249;-74
2022/09/18 11:13:19;;;;;;;0.10;0.10;;;;;;;;;;5063431;28;20209;-74
2022/09/18 11:15:51;;;;;;;0.10;0.10;;;;;;;;;;5043442;28;20242;-75
2022/09/18 11:18:18;;;;;;;0.10;0.10;;;;;;;;;;5062456;28;20199;-75
2022/09/18 11:20:44;;;;;;;0.10;0.10;;;;;;;;;;5042715;28;20298;-75
2022/09/18 11:23:15;;;;;;;0.10;0.10;;;;;;;;;;5064209;28;20396;-74
2022/09/18 11:25:44;;;;;;;0.00;0.00;;;;;;;;;;5042040;28;20239;-74
2022/09/18 11:28:20;;;;;;;0.10;0.10;;;;;;;;;;5063613;28;20214;-74
2022/09/18 11:30:54;;;;;;;0.10;0.10;;;;;;;;;;5043043;28;20257;-74
2022/09/18 11:33:24;;;;;;;0.10;0.10;;;;;;;;;;5061178;28;20211;-74
2022/09/18 11:35:54;;;;;;;0.10;0.10;;;;;;;;;;5044118;28;20524;-73
2022/09/18 11:38:20;;;;;;;0.10;0.10;;;;;;;;;;5060947;28;20264;-74
2022/09/18 11:40:50;;;;;;;0.10;0.10;;;;;;;;;;5043417;28;20244;-75
2022/09/18 11:43:21;;;;;;;0.10;0.10;;;;;;;;;;5062035;28;20523;-74
2022/09/18 11:45:51;;;;;;;0.10;0.10;;;;;;;;;;5043481;28;20289;-73
2022/09/18 11:48:23;;;;;;;0.10;0.10;;;;;;;;;;5061654;28;20198;-74
2022/09/18 11:50:52;;;;;;;0.10;0.10;;;;;;;;;;5043341;28;20464;-74
2022/09/18 11:53:19;;;;;;;0.10;0.10;;;;;;;;;;5061741;28;20228;-74
2022/09/18 11:55:49;;;;;;;0.10;0.10;;;;;;;;;;5042894;28;20483;-74
2022/09/18 11:58:17;;;;;;;0.00;0.00;;;;;;;;;;5062491;28;20233;-73
2022/09/18 12:00:45;;;;;;;0.10;0.10;;;;;;;;;;5040913;28;20552;-74
2022/09/18 12:03:15;;;;;;;0.10;0.10;;;;;;;;;;5065770;28;20206;-74
2022/09/18 12:05:50;;;;;;;0.10;0.10;;;;;;;;;;5045308;28;20288;-73
2022/09/18 12:08:21;;;;;;;0.00;0.00;;;;;;;;;;5065785;28;20221;-74
2022/09/18 12:10:55;;;;;;;0.10;0.10;;;;;;;;;;5046930;28;20239;-74
2022/09/18 12:13:39;;;;;;;0.00;0.00;;;;;;;;;;5064769;28;20426;-74
2022/09/18 12:16:10;;;;;;;0.10;0.10;;;;;;;;;;5051762;28;20239;-74
2022/09/18 12:18:41;;;;;;;0.10;0.10;;;;;;;;;;5060533;28;20221;-73
2022/09/18 12:21:12;;;;;;;0.00;0.00;;;;;;;;;;5052309;28;20239;-74
2022/09/18 12:23:40;;;;;;;0.10;0.10;;;;;;;;;;5059836;28;20220;-75
2022/09/18 12:26:10;;;;;;;0.10;0.10;;;;;;;;;;5052026;28;20314;-74
2022/09/18 12:28:42;;;;;;;0.10;0.10;;;;;;;;;;5060351;28;20200;-73
2022/09/18 12:31:12;;;;;;;0.10;0.10;;;;;;;;;;5052060;28;20235;-75
2022/09/18 12:33:41;;;;;;;0.10;0.10;;;;;;;;;;5059424;28;20242;-74
2022/09/18 12:36:26;;;;;;;0.10;0.10;;;;;;;;;;5051851;28;20244;-75
2022/09/18 12:39:01;;;;;;;0.10;0.10;;;;;;;;;;5043169;28;20469;-74
2022/09/18 12:41:35;;;;;;;0.10;0.10;;;;;;;;;;5057511;28;20258;-73
2022/09/18 12:44:10;;;;;;;0.10;0.10;;;;;;;;;;5053368;28;20275;-74
2022/09/18 12:46:42;;;;;;;0.10;0.10;;;;;;;;;;5059499;28;20248;-75
2022/09/18 12:49:13;;;;;;;0.10;0.10;;;;;;;;;;5051585;28;20394;-75
2022/09/18 12:51:42;;;;;;;0.10;0.10;;;;;;;;;;5060323;28;20286;-74
2022/09/18 12:54:23;;;;;;;0.10;0.10;;;;;;;;;;5050871;28;20222;-74
2022/09/18 12:56:55;;;;;;;0.10;0.10;;;;;;;;;;5062880;28;20253;-75
2022/09/18 12:59:32;;;;;;;0.10;0.10;;;;;;;;;;5047705;28;20195;-74
2022/09/18 13:02:03;;;;;;;0.00;0.00;;;;;;;;;;5065564;28;20233;-74
2022/09/18 13:04:30;;;;;;;0.10;0.10;;;;;;;;;;5045424;28;20202;-74
2022/09/18 13:06:58;;;;;;;0.10;0.10;;;;;;;;;;5064672;28;20317;-74
2022/09/18 13:09:29;;;;;;;0.10;0.10;;;;;;;;;;5046667;28;20275;-74
2022/09/18 13:11:58;;;;;;;0.03;0.03;;;;;;;;;;5063924;28;20564;-74
2022/09/18 13:14:27;;;;;;;0.10;0.10;;;;;;;;;;5046245;28;20319;-74
2022/09/18 13:16:55;;;;;;;0.10;0.10;;;;;;;;;;5063742;28;20315;-74
2022/09/18 13:19:26;;;;;;;0.10;0.10;;;;;;;;;;5047432;28;20207;-75
2022/09/18 13:21:53;;;;;;;0.00;0.00;;;;;;;;;;5063209;28;20237;-75
2022/09/18 13:24:21;;;;;;;0.10;0.10;;;;;;;;;;5047430;28;20205;-75
2022/09/18 13:26:50;;;;;;;0.00;0.00;;;;;;;;;;5062213;28;20315;-76
2022/09/18 13:29:35;;;;;;;0.10;0.10;;;;;;;;;;5048628;28;20236;-74
2022/09/18 13:32:01;;;;;;;0.00;0.00;;;;;;;;;;5065256;28;20307;-75
2022/09/18 13:34:28;;;;;;;0.00;0.00;;;;;;;;;;5044842;28;20213;-73
2022/09/18 13:37:04;;;;;;;0.07;0.07;;;;;;;;;;5063366;28;20246;-75
2022/09/18 13:39:32;;;;;;;0.07;0.07;;;;;;;;;;5044605;28;20364;-73
2022/09/18 13:42:03;;;;;;;0.10;0.10;;;;;;;;;;5063954;28;20246;-74
2022/09/18 13:44:30;;;;;;;0.10;0.10;;;;;;;;;;5045001;28;20204;-73
2022/09/18 13:46:58;;;;;;;0.10;0.10;;;;;;;;;;5063818;28;20246;-74
2022/09/18 13:49:27;;;;;;;0.00;0.00;;;;;;;;;;5045735;28;20479;-73
2022/09/18 13:51:54;;;;;;;0.10;0.10;;;;;;;;;;5062845;28;20238;-73
2022/09/18 13:54:25;;;;;;;0.10;0.10;;;;;;;;;;5046488;28;20208;-73
2022/09/18 13:57:13;;;;;;;0.00;0.00;;;;;;;;;;5062003;28;20261;-74
2022/09/18 13:59:48;;;;;;;0.10;0.10;;;;;;;;;;5043596;28;20207;-74
2022/09/18 14:02:28;;;;;;;0.10;0.10;;;;;;;;;;5065645;28;20437;-74
2022/09/18 14:04:59;;;;;;;0.10;0.10;;;;;;;;;;5043397;28;20206;-73
2022/09/18 14:07:42;;;;;;;0.10;0.10;;;;;;;;;;5065766;28;20246;-78
2022/09/18 14:10:20;;;;;;;0.10;0.10;;;;;;;;;;5034902;28;20388;-77
2022/09/18 14:13:02;;;;;;;0.10;0.10;;;;;;;;;;5071284;28;20237;-76
2022/09/18 14:15:31;;;;;;;0.10;0.10;;;;;;;;;;5039566;28;20237;-77
2022/09/18 14:18:05;;;;;;;0.10;0.10;;;;;;;;;;5068735;28;20212;-77
2022/09/18 14:20:32;;;;;;;0.10;0.10;;;;;;;;;;5040372;28;20244;-76
2022/09/18 14:23:33;;;;;;;0.10;0.10;;;;;;;;;;5068183;28;20199;-77
2022/09/18 14:25:59;;;;;;;0.10;0.10;;;;;;;;;;5047692;28;20240;-76
2022/09/18 14:28:26;;;;;;;0.10;0.10;;;;;;;;;;5060891;28;20206;-77
2022/09/18 14:31:07;;;;;;;0.10;0.10;;;;;;;;;;5045693;28;20242;-77
2022/09/18 14:33:35;;;;;;;0.10;0.10;;;;;;;;;;5057960;28;20229;-76
2022/09/18 14:36:03;;;;;;;0.10;0.10;;;;;;;;;;5047785;28;20241;-78
2022/09/18 14:38:33;;;;;;;0.10;0.10;;;;;;;;;;5059707;28;20201;-76
2022/09/18 14:41:04;;;;;;;0.10;0.10;;;;;;;;;;5047430;28;20627;-78
2022/09/18 14:43:31;;;;;;;0.10;0.10;;;;;;;;;;5059212;28;20424;-76
2022/09/18 14:45:57;;;;;;;0.10;0.10;;;;;;;;;;5046771;28;20555;-78
2022/09/18 14:48:28;;;;;;;0.10;0.10;;;;;;;;;;5061194;28;20371;-78
2022/09/18 14:51:00;;;;;;;0.10;0.10;;;;;;;;;;5045976;28;20512;-78
2022/09/18 14:53:27;;;;;;;0.00;0.00;;;;;;;;;;5060546;28;20229;-77